createdAt,value
2019-04-26T00:00:41.035Z,10.70
2019-04-26T00:02:30.362Z,6.50
2019-04-26T00:04:06.061Z,10.55
2019-04-26T00:05:41.582Z,8.83
2019-04-26T00:07:17.366Z,7.80
2019-04-26T00:08:55.983Z,8.03
2019-04-26T00:10:36.291Z,8.28
2019-04-26T00:12:25.736Z,8.33
2019-04-26T00:14:21.008Z,10.85
2019-04-26T00:16:01.037Z,7.12
2019-04-26T00:17:38.470Z,8.40
2019-04-26T00:19:14.353Z,8.60
2019-04-26T00:20:50.521Z,9.07
2019-04-26T00:22:26.334Z,8.40
2019-04-26T00:24:03.731Z,8.07
2019-04-26T00:25:39.523Z,8.10
2019-04-26T00:27:15.051Z,6.77
2019-04-26T00:28:52.036Z,5.80
2019-04-26T00:30:27.814Z,8.88
2019-04-26T00:32:03.462Z,8.23
2019-04-26T00:33:39.040Z,7.67
2019-04-26T00:35:15.615Z,7.90
2019-04-26T00:36:51.139Z,8.07
2019-04-26T00:38:26.648Z,8.10
2019-04-26T00:40:02.167Z,13.20
2019-04-26T00:41:38.684Z,7.28
2019-04-26T00:43:14.347Z,6.60
2019-04-26T00:44:50.071Z,9.60
2019-04-26T00:46:27.201Z,8.37
2019-04-26T00:48:03.302Z,6.92
2019-04-26T00:49:43.889Z,7.33
2019-04-26T00:51:19.295Z,8.90
2019-04-26T00:52:55.339Z,9.50
2019-04-26T00:54:32.544Z,7.60
2019-04-26T00:56:09.718Z,8.40
2019-04-26T00:57:45.235Z,10.07
2019-04-26T00:59:22.498Z,8.57
2019-04-26T01:00:58.350Z,6.65
2019-04-26T01:02:35.831Z,7.80
2019-04-26T01:04:11.418Z,6.15
2019-04-26T01:05:59.223Z,10.20
2019-04-26T01:09:07.490Z,8.90
2019-04-26T01:10:44.635Z,5.93
2019-04-26T01:12:20.174Z,8.23
2019-04-26T01:13:55.676Z,8.20
2019-04-26T01:15:31.211Z,10.90
2019-04-26T01:17:06.722Z,9.55
2019-04-26T01:18:43.789Z,10.60
2019-04-26T01:20:20.978Z,9.27
2019-04-26T01:22:01.285Z,8.03
2019-04-26T01:23:39.511Z,6.60
2019-04-26T01:25:37.218Z,8.50
2019-04-26T01:27:15.539Z,7.17
2019-04-26T01:28:58.823Z,6.73
2019-04-26T01:30:35.583Z,7.65
2019-04-26T01:32:14.448Z,8.00
2019-04-26T01:33:50.657Z,8.83
2019-04-26T01:35:26.971Z,8.05
2019-04-26T01:37:04.130Z,9.03
2019-04-26T01:38:39.643Z,8.03
2019-04-26T01:40:17.168Z,9.23
2019-04-26T01:42:01.681Z,8.80
2019-04-26T01:43:43.000Z,6.97
2019-04-26T01:45:21.771Z,12.73
2019-04-26T01:46:58.067Z,6.90
2019-04-26T01:48:44.529Z,9.33
2019-04-26T01:50:23.979Z,8.13
2019-04-26T01:52:11.021Z,5.97
2019-04-26T01:53:50.657Z,8.33
2019-04-26T01:55:29.187Z,8.53
2019-04-26T01:57:06.876Z,7.10
2019-04-26T01:58:42.475Z,10.10
2019-04-26T02:00:23.882Z,7.43
2019-04-26T02:02:03.611Z,10.83
2019-04-26T02:03:39.202Z,8.35
2019-04-26T02:05:26.266Z,10.15
2019-04-26T02:07:03.270Z,7.85
2019-04-26T02:08:38.791Z,8.35
2019-04-26T02:10:18.246Z,7.85
2019-04-26T02:11:53.799Z,8.43
2019-04-26T02:13:29.592Z,8.77
2019-04-26T02:15:07.730Z,9.38
2019-04-26T02:16:43.854Z,9.48
2019-04-26T02:18:19.383Z,7.27
2019-04-26T02:19:55.749Z,8.83
2019-04-26T02:21:32.975Z,8.90
2019-04-26T02:23:13.107Z,6.67
2019-04-26T02:24:51.280Z,10.73
2019-04-26T02:26:34.883Z,8.87
2019-04-26T02:28:10.949Z,9.08
2019-04-26T02:29:46.472Z,7.22
2019-04-26T02:31:22.464Z,9.70
2019-04-26T02:32:58.918Z,8.60
2019-04-26T02:34:37.839Z,8.70
2019-04-26T02:36:12.901Z,10.25
2019-04-26T02:37:48.645Z,8.00
2019-04-26T02:39:35.954Z,10.60
2019-04-26T02:41:12.439Z,6.90
2019-04-26T02:42:48.595Z,8.57
2019-04-26T02:44:31.315Z,10.70
2019-04-26T02:46:08.751Z,10.03
2019-04-26T02:47:48.885Z,8.88
2019-04-26T02:49:35.051Z,8.23
2019-04-26T02:51:18.327Z,7.87
2019-04-26T02:53:12.928Z,7.33
2019-04-26T02:55:08.128Z,9.57
2019-04-26T02:56:46.862Z,6.05
2019-04-26T02:58:25.747Z,7.00
2019-04-26T03:00:06.321Z,6.47
2019-04-26T03:01:42.276Z,11.08
2019-04-26T03:03:19.035Z,14.28
2019-04-26T03:04:58.405Z,11.27
2019-04-26T03:06:36.897Z,10.43
2019-04-26T03:08:15.759Z,7.72
2019-04-26T03:09:53.109Z,8.87
2019-04-26T03:11:37.119Z,11.80
2019-04-26T03:13:17.703Z,7.75
2019-04-26T03:15:13.990Z,8.63
2019-04-26T03:16:57.953Z,10.05
2019-04-26T03:18:40.973Z,8.30
2019-04-26T03:20:22.654Z,6.50
2019-04-26T03:22:24.031Z,11.70
2019-04-26T03:24:19.147Z,9.83
2019-04-26T03:26:11.175Z,8.27
2019-04-26T03:28:21.333Z,8.00
2019-04-26T03:30:22.609Z,8.67
2019-04-26T03:32:17.337Z,8.10
2019-04-26T03:34:14.226Z,9.50
2019-04-26T03:36:05.753Z,7.73
2019-04-26T03:37:59.199Z,7.97
2019-04-26T03:39:57.602Z,6.53
2019-04-26T03:42:05.510Z,6.73
2019-04-26T03:44:17.492Z,8.37
2019-04-26T03:46:30.132Z,14.27
2019-04-26T03:48:26.955Z,10.10
2019-04-26T03:50:16.930Z,9.07
2019-04-26T03:52:17.583Z,9.47
2019-04-26T03:54:09.066Z,7.70
2019-04-26T03:55:53.223Z,6.80
2019-04-26T03:57:47.001Z,11.57
2019-04-26T03:59:31.624Z,8.67
2019-04-26T04:01:11.563Z,9.33
2019-04-26T04:03:26.805Z,11.53
2019-04-26T04:05:17.021Z,9.03
2019-04-26T04:07:03.663Z,10.80
2019-04-26T04:09:06.955Z,12.77
2019-04-26T04:11:04.341Z,11.83
2019-04-26T04:13:03.055Z,9.33
2019-04-26T04:14:51.771Z,10.50
2019-04-26T04:16:54.978Z,8.78
2019-04-26T04:18:33.705Z,9.80
2019-04-26T04:20:16.632Z,11.53
2019-04-26T04:22:02.078Z,9.20
2019-04-26T04:23:51.259Z,7.67
2019-04-26T04:25:53.872Z,13.15
2019-04-26T04:27:38.251Z,7.97
2019-04-26T04:29:50.467Z,10.43
2019-04-26T04:31:49.349Z,9.90
2019-04-26T04:33:49.463Z,8.93
2019-04-26T04:35:27.677Z,8.28
2019-04-26T04:37:05.304Z,10.07
2019-04-26T04:38:50.718Z,7.30
2019-04-26T04:41:13.097Z,10.03
2019-04-26T04:43:06.679Z,9.63
2019-04-26T04:45:09.678Z,9.30
2019-04-26T04:47:24.714Z,10.53
2019-04-26T04:49:36.958Z,11.05
2019-04-26T04:51:46.364Z,12.33
2019-04-26T04:53:46.519Z,9.08
2019-04-26T04:55:55.241Z,11.83
2019-04-26T04:57:38.460Z,10.25
2019-04-26T04:59:41.767Z,11.33
2019-04-26T05:01:50.463Z,11.28
2019-04-26T05:03:48.883Z,10.27
2019-04-26T05:05:33.250Z,10.32
2019-04-26T05:07:27.268Z,9.83
2019-04-26T05:09:09.767Z,9.30
2019-04-26T05:11:13.916Z,9.93
2019-04-26T05:13:13.088Z,11.12
2019-04-26T05:15:18.477Z,9.50
2019-04-26T05:17:14.971Z,9.07
2019-04-26T05:19:29.707Z,10.65
2019-04-26T05:21:09.930Z,8.60
2019-04-26T05:23:12.017Z,10.70
2019-04-26T05:25:13.008Z,9.94
2019-04-26T05:27:14.196Z,11.83
2019-04-26T05:29:15.697Z,10.15
2019-04-26T05:31:18.449Z,11.08
2019-04-26T05:33:19.605Z,10.63
2019-04-26T05:35:41.974Z,11.40
2019-04-26T05:37:31.556Z,11.16
2019-04-26T05:39:29.871Z,11.38
2019-04-26T05:41:15.951Z,10.53
2019-04-26T05:43:42.950Z,12.45
2019-04-26T05:45:58.094Z,12.22
2019-04-26T05:48:08.433Z,11.08
2019-04-26T05:49:57.949Z,9.60
2019-04-26T05:52:03.868Z,10.25
2019-04-26T05:53:57.973Z,7.28
2019-04-26T05:56:11.619Z,10.45
2019-04-26T05:58:27.922Z,14.28
2019-04-26T06:00:50.441Z,9.47
2019-04-26T06:02:58.985Z,11.33
2019-04-26T06:05:23.721Z,6.20
2019-04-26T06:07:19.171Z,9.80
2019-04-26T06:09:28.283Z,9.20
2019-04-26T06:11:14.386Z,8.38
2019-04-26T06:13:18.345Z,9.60
2019-04-26T06:15:09.683Z,9.05
2019-04-26T06:17:11.870Z,12.20
2019-04-26T06:19:29.415Z,12.85
2019-04-26T06:21:09.799Z,9.93
2019-04-26T06:22:59.712Z,10.20
2019-04-26T06:24:46.646Z,10.38
2019-04-26T06:27:20.048Z,7.05
2019-04-26T06:29:06.502Z,9.05
2019-04-26T06:30:55.507Z,8.20
2019-04-26T06:33:07.656Z,8.35
2019-04-26T06:35:12.233Z,11.90
2019-04-26T06:36:59.941Z,8.93
2019-04-26T06:39:02.528Z,8.10
2019-04-26T06:41:04.974Z,8.98
2019-04-26T06:43:11.458Z,11.95
2019-04-26T06:45:02.848Z,10.13
2019-04-26T06:46:59.792Z,11.48
2019-04-26T06:49:13.367Z,10.50
2019-04-26T06:50:56.035Z,7.45
2019-04-26T06:52:35.898Z,7.03
2019-04-26T06:54:24.623Z,8.03
2019-04-26T06:56:21.259Z,8.83
2019-04-26T06:58:35.971Z,9.73
2019-04-26T07:00:16.970Z,9.33
2019-04-26T07:02:06.228Z,7.47
2019-04-26T07:04:02.105Z,8.03
2019-04-26T07:05:46.401Z,8.78
2019-04-26T07:08:03.304Z,7.50
2019-04-26T07:10:04.876Z,8.05
2019-04-26T07:12:13.167Z,7.07
2019-04-26T07:14:00.578Z,6.30
2019-04-26T07:16:19.603Z,11.85
2019-04-26T07:18:25.001Z,4.95
2019-04-26T07:20:31.257Z,6.05
2019-04-26T07:22:43.516Z,5.80
2019-04-26T07:24:56.987Z,6.10
2019-04-26T07:27:03.138Z,7.37
2019-04-26T07:29:09.702Z,8.08
2019-04-26T07:31:09.984Z,6.20
2019-04-26T07:33:29.282Z,4.55
2019-04-26T07:35:19.675Z,9.90
2019-04-26T07:37:22.267Z,6.17
2019-04-26T07:39:23.731Z,7.73
2019-04-26T07:41:20.650Z,7.53
2019-04-26T07:43:29.288Z,5.14
2019-04-26T07:45:31.924Z,7.45
2019-04-26T07:47:33.299Z,7.20
2019-04-26T07:49:51.138Z,5.03
2019-04-26T07:52:06.412Z,3.86
2019-04-26T07:54:18.639Z,4.92
2019-04-26T07:56:07.479Z,6.05
2019-04-26T07:58:03.684Z,4.55
2019-04-26T08:00:02.804Z,5.78
2019-04-26T08:01:54.426Z,4.20
2019-04-26T08:03:45.165Z,6.00
2019-04-26T08:05:47.434Z,4.60
2019-04-26T08:07:27.012Z,4.10
2019-04-26T08:09:07.542Z,4.53
2019-04-26T08:11:08.680Z,4.83
2019-04-26T08:12:48.887Z,6.20
2019-04-26T08:14:37.122Z,4.53
2019-04-26T08:16:29.669Z,5.92
2019-04-26T08:18:10.791Z,5.58
2019-04-26T08:19:57.473Z,4.42
2019-04-26T08:21:42.530Z,4.90
2019-04-26T08:23:38.517Z,3.85
2019-04-26T08:25:00.797Z,4.47
2019-04-26T08:26:38.947Z,4.12
2019-04-26T08:28:17.540Z,4.10
2019-04-26T08:29:57.878Z,2.65
2019-04-26T08:31:37.003Z,4.40
2019-04-26T08:33:16.134Z,2.33
2019-04-26T08:35:08.299Z,2.90
2019-04-26T08:36:45.026Z,4.03
2019-04-26T08:38:22.895Z,2.58
2019-04-26T08:39:59.452Z,3.00
2019-04-26T08:41:39.211Z,4.47
2019-04-26T08:43:20.666Z,4.00
2019-04-26T08:45:13.540Z,2.65
2019-04-26T08:46:56.962Z,5.28
2019-04-26T08:48:49.747Z,3.74
2019-04-26T08:50:31.336Z,2.87
2019-04-26T08:52:14.545Z,3.05
2019-04-26T08:53:49.495Z,3.40
2019-04-26T08:55:28.152Z,3.50
2019-04-26T08:57:07.519Z,2.60
2019-04-26T08:58:46.899Z,5.28
2019-04-26T09:00:34.478Z,4.58
2019-04-26T09:02:19.336Z,3.40
2019-04-26T09:04:00.238Z,6.45
2019-04-26T09:05:38.628Z,4.03
2019-04-26T09:07:18.856Z,4.17
2019-04-26T09:08:56.527Z,3.62
2019-04-26T09:10:34.777Z,2.72
2019-04-26T09:12:22.955Z,2.95
2019-04-26T09:13:53.792Z,3.58
2019-04-26T09:16:02.181Z,3.67
2019-04-26T09:17:37.838Z,4.37
2019-04-26T09:19:13.549Z,3.60
2019-04-26T09:20:49.054Z,4.78
2019-04-26T09:22:32.022Z,3.80
2019-04-26T09:24:15.365Z,2.62
2019-04-26T09:25:59.293Z,3.85
2019-04-26T09:27:33.995Z,7.62
2019-04-26T09:29:11.161Z,3.13
2019-04-26T09:30:57.542Z,3.58
2019-04-26T09:32:34.709Z,9.18
2019-04-26T09:34:11.870Z,3.23
2019-04-26T09:35:47.385Z,10.00
2019-04-26T09:37:22.919Z,4.33
2019-04-26T09:38:59.282Z,4.58
2019-04-26T09:40:34.817Z,3.65
2019-04-26T09:42:11.953Z,3.10
2019-04-26T09:43:49.123Z,4.05
2019-04-26T09:45:32.279Z,3.72
2019-04-26T09:47:12.337Z,4.53
2019-04-26T09:49:03.095Z,2.70
2019-04-26T09:50:49.434Z,3.02
2019-04-26T09:52:26.595Z,4.20
2019-04-26T09:54:02.131Z,3.30
2019-04-26T09:55:37.693Z,3.22
2019-04-26T09:57:13.198Z,3.33
2019-04-26T09:58:48.756Z,4.87
2019-04-26T10:00:28.657Z,3.20
2019-04-26T10:02:06.059Z,3.63
2019-04-26T10:03:41.588Z,4.25
2019-04-26T10:05:17.585Z,6.42
2019-04-26T10:06:54.600Z,3.47
2019-04-26T10:08:30.873Z,4.95
2019-04-26T10:10:07.842Z,2.15
2019-04-26T10:11:45.164Z,2.65
2019-04-26T10:13:33.973Z,3.40
2019-04-26T10:15:26.841Z,3.87
2019-04-26T10:17:04.782Z,3.50
2019-04-26T10:18:41.932Z,2.83
2019-04-26T10:20:17.462Z,3.35
2019-04-26T10:21:52.982Z,3.05
2019-04-26T10:23:28.493Z,6.05
2019-04-26T10:25:07.636Z,4.55
2019-04-26T10:26:42.845Z,4.07
2019-04-26T10:28:18.448Z,3.72
2019-04-26T10:29:55.704Z,3.75
2019-04-26T10:31:32.448Z,4.20
2019-04-26T10:33:08.136Z,2.87
2019-04-26T10:34:47.261Z,2.30
2019-04-26T10:36:21.135Z,2.98
2019-04-26T10:37:56.639Z,2.60
2019-04-26T10:39:33.920Z,2.40
2019-04-26T10:41:09.700Z,3.87
2019-04-26T10:42:45.240Z,3.00
2019-04-26T10:44:20.844Z,5.00
2019-04-26T10:45:56.357Z,3.08
2019-04-26T10:47:34.369Z,8.58
2019-04-26T10:49:40.101Z,3.92
2019-04-26T10:51:17.345Z,2.20
2019-04-26T10:52:54.427Z,4.12
2019-04-26T10:54:30.130Z,3.65
2019-04-26T10:56:24.173Z,4.33
2019-04-26T10:58:20.407Z,4.50
2019-04-26T10:59:57.927Z,2.87
2019-04-26T11:01:33.787Z,2.30
2019-04-26T11:03:09.479Z,5.47
2019-04-26T11:04:44.980Z,5.35
2019-04-26T11:06:20.509Z,3.33
2019-04-26T11:07:56.017Z,3.98
2019-04-26T11:09:31.557Z,4.35
2019-04-26T11:11:09.861Z,4.28
2019-04-26T11:12:45.376Z,3.55
2019-04-26T11:14:22.762Z,4.20
2019-04-26T11:15:58.355Z,2.75
2019-04-26T11:17:34.108Z,4.83
2019-04-26T11:19:09.624Z,3.63
2019-04-26T11:20:45.736Z,4.87
2019-04-26T11:22:28.936Z,3.60
2019-04-26T11:24:00.066Z,4.33
2019-04-26T11:25:35.883Z,4.12
2019-04-26T11:27:11.428Z,2.42
2019-04-26T11:28:47.121Z,4.53
2019-04-26T11:30:23.214Z,2.95
2019-04-26T11:32:02.622Z,4.25
2019-04-26T11:33:44.668Z,4.05
2019-04-26T11:35:13.632Z,4.40
2019-04-26T11:36:49.170Z,3.90
2019-04-26T11:38:26.900Z,5.53
2019-04-26T11:40:04.731Z,3.83
2019-04-26T11:41:40.400Z,6.16
2019-04-26T11:43:19.458Z,4.10
2019-04-26T11:45:05.392Z,3.23
2019-04-26T11:46:30.611Z,5.83
2019-04-26T11:48:07.097Z,3.98
2019-04-26T11:49:42.986Z,4.53
2019-04-26T11:51:18.948Z,4.47
2019-04-26T11:52:54.489Z,6.53
2019-04-26T11:54:30.012Z,4.03
2019-04-26T11:56:06.065Z,7.53
2019-04-26T11:57:43.708Z,3.90
2019-04-26T11:59:19.985Z,4.65
2019-04-26T12:00:57.140Z,5.95
2019-04-26T12:02:34.341Z,5.80
2019-04-26T12:04:12.598Z,4.10
2019-04-26T12:06:02.149Z,4.83
2019-04-26T12:07:45.058Z,3.92
2019-04-26T12:09:31.327Z,4.47
2019-04-26T12:11:17.787Z,3.75
2019-04-26T12:12:47.109Z,7.67
2019-04-26T12:14:23.228Z,4.70
2019-04-26T12:15:58.741Z,5.42
2019-04-26T12:17:35.177Z,4.53
2019-04-26T12:19:14.253Z,4.67
2019-04-26T12:20:48.671Z,4.45
2019-04-26T12:22:24.490Z,5.03
2019-04-26T12:24:00.004Z,5.55
2019-04-26T12:25:38.888Z,4.65
2019-04-26T12:27:12.810Z,3.46
2019-04-26T12:28:48.742Z,8.50
2019-04-26T12:30:26.728Z,5.40
2019-04-26T12:32:01.836Z,4.62
2019-04-26T12:33:39.056Z,4.10
2019-04-26T12:35:15.033Z,3.60
2019-04-26T12:36:50.645Z,3.72
2019-04-26T12:38:28.639Z,5.17
2019-04-26T12:40:07.236Z,6.85
2019-04-26T12:41:41.440Z,8.15
2019-04-26T12:43:20.211Z,5.70
2019-04-26T12:44:56.185Z,6.53
2019-04-26T12:46:38.762Z,5.10
2019-04-26T12:48:21.903Z,4.20
2019-04-26T12:49:58.934Z,6.28
2019-04-26T12:51:35.098Z,6.37
2019-04-26T12:53:10.607Z,6.35
2019-04-26T12:54:46.208Z,3.92
2019-04-26T12:56:21.737Z,5.97
2019-04-26T12:57:57.258Z,5.53
2019-04-26T12:59:43.557Z,4.20
2019-04-26T13:01:13.261Z,5.55
2019-04-26T13:02:50.134Z,5.40
2019-04-26T13:04:35.825Z,7.08
2019-04-26T13:06:03.512Z,4.37
2019-04-26T13:07:42.974Z,6.55
2019-04-26T13:09:21.796Z,5.62
2019-04-26T13:11:16.194Z,7.05
2019-04-26T13:12:56.192Z,3.62
2019-04-26T13:14:49.604Z,5.80
2019-04-26T13:16:32.502Z,6.78
2019-04-26T13:18:11.265Z,5.50
2019-04-26T13:19:45.247Z,4.53
2019-04-26T13:21:20.769Z,4.55
2019-04-26T13:22:56.611Z,5.60
2019-04-26T13:24:35.447Z,5.65
2019-04-26T13:26:10.319Z,4.28
2019-04-26T13:27:47.068Z,5.72
2019-04-26T13:29:22.591Z,4.45
2019-04-26T13:30:58.111Z,4.50
2019-04-26T13:32:33.646Z,4.47
2019-04-26T13:34:09.174Z,3.77
2019-04-26T13:35:46.648Z,3.65
2019-04-26T13:37:21.882Z,5.54
2019-04-26T13:38:57.403Z,5.65
2019-04-26T13:40:33.409Z,3.85
2019-04-26T13:42:09.845Z,4.80
2019-04-26T13:43:47.675Z,6.25
2019-04-26T13:45:35.208Z,4.75
2019-04-26T13:47:12.358Z,3.15
2019-04-26T13:48:53.764Z,3.08
2019-04-26T13:50:33.752Z,4.27
2019-04-26T13:52:10.969Z,3.12
2019-04-26T13:53:46.696Z,4.45
2019-04-26T13:55:25.392Z,3.08
2019-04-26T13:56:59.701Z,5.83
2019-04-26T13:58:35.195Z,3.50
2019-04-26T14:00:12.606Z,8.83
2019-04-26T14:01:48.221Z,5.67
2019-04-26T14:03:27.134Z,3.45
2019-04-26T14:05:01.006Z,3.77
2019-04-26T14:06:36.827Z,5.80
2019-04-26T14:08:12.346Z,3.52
2019-04-26T14:09:48.041Z,2.50
2019-04-26T14:11:27.996Z,4.72
2019-04-26T14:13:11.217Z,5.15
2019-04-26T14:14:46.486Z,4.83
2019-04-26T14:16:22.821Z,4.60
2019-04-26T14:18:00.305Z,6.33
2019-04-26T14:19:36.648Z,5.05
2019-04-26T14:21:12.925Z,2.47
2019-04-26T14:23:07.366Z,2.60
2019-04-26T14:24:44.630Z,5.33
2019-04-26T14:26:27.810Z,3.70
2019-04-26T14:28:03.388Z,2.80
2019-04-26T14:29:40.214Z,6.92
2019-04-26T14:31:21.631Z,3.10
2019-04-26T14:33:00.547Z,5.58
2019-04-26T14:34:43.812Z,4.30
2019-04-26T14:36:22.657Z,4.17
2019-04-26T14:37:58.147Z,3.93
2019-04-26T14:39:49.245Z,3.37
2019-04-26T14:41:13.245Z,4.00
2019-04-26T14:42:48.807Z,4.37
2019-04-26T14:44:27.355Z,2.98
2019-04-26T14:46:02.641Z,3.20
2019-04-26T14:47:47.285Z,2.90
2019-04-26T14:49:15.444Z,5.08
2019-04-26T14:50:53.254Z,3.22
2019-04-26T14:52:29.051Z,3.37
2019-04-26T14:54:07.310Z,3.93
2019-04-26T14:55:43.220Z,4.83
2019-04-26T14:57:24.497Z,2.83
2019-04-26T14:58:56.264Z,5.83
2019-04-26T15:00:33.960Z,4.40
2019-04-26T15:02:12.948Z,3.35
2019-04-26T15:04:06.185Z,5.30
2019-04-26T15:05:54.050Z,5.67
2019-04-26T15:07:32.525Z,5.52
2019-04-26T15:09:19.277Z,4.90
2019-04-26T15:10:49.103Z,3.37
2019-04-26T15:12:25.840Z,4.50
2019-04-26T15:14:03.222Z,5.42
2019-04-26T15:15:38.826Z,2.70
2019-04-26T15:17:16.302Z,3.87
2019-04-26T15:18:52.550Z,3.72
2019-04-26T15:20:30.277Z,3.20
2019-04-26T15:22:10.408Z,6.07
2019-04-26T15:23:43.027Z,2.65
2019-04-26T15:25:18.576Z,3.35
2019-04-26T15:26:54.120Z,3.08
2019-04-26T15:28:29.701Z,5.80
2019-04-26T15:30:16.973Z,4.17
2019-04-26T15:31:49.205Z,4.12
2019-04-26T15:33:25.984Z,5.45
2019-04-26T15:35:01.566Z,4.30
2019-04-26T15:36:37.173Z,2.70
2019-04-26T15:38:12.705Z,4.47
2019-04-26T15:39:56.842Z,3.92
2019-04-26T15:41:47.077Z,6.80
2019-04-26T15:43:24.708Z,8.05
2019-04-26T15:45:11.022Z,4.60
2019-04-26T15:46:48.915Z,3.83
2019-04-26T15:48:29.209Z,4.33
2019-04-26T15:50:09.846Z,5.00
2019-04-26T15:51:44.813Z,4.55
2019-04-26T15:53:22.075Z,4.90
2019-04-26T15:54:58.965Z,4.42
2019-04-26T15:56:35.066Z,5.70
2019-04-26T15:58:12.236Z,4.28
2019-04-26T15:59:47.772Z,3.00
2019-04-26T16:01:23.314Z,2.90
2019-04-26T16:03:03.868Z,4.28
2019-04-26T16:04:36.144Z,8.53
2019-04-26T16:06:15.731Z,8.13
2019-04-26T16:07:52.866Z,3.60
2019-04-26T16:09:28.812Z,5.37
2019-04-26T16:11:07.219Z,4.35
2019-04-26T16:12:43.002Z,3.47
2019-04-26T16:14:18.516Z,4.70
2019-04-26T16:15:54.040Z,3.67
2019-04-26T16:17:30.562Z,5.95
2019-04-26T16:19:06.244Z,4.25
2019-04-26T16:20:42.864Z,5.83
2019-04-26T16:22:19.113Z,4.53
2019-04-26T16:23:55.381Z,4.10
2019-04-26T16:25:34.360Z,3.83
2019-04-26T16:29:14.221Z,6.70
2019-04-26T16:31:11.073Z,5.45
2019-04-26T16:32:54.161Z,3.50
2019-04-26T16:34:41.732Z,5.58
2019-04-26T16:36:15.340Z,4.10
2019-04-26T16:37:52.098Z,4.37
2019-04-26T16:39:32.324Z,4.55
2019-04-26T16:41:06.220Z,7.47
2019-04-26T16:42:41.842Z,5.42
2019-04-26T16:44:19.301Z,4.87
2019-04-26T16:45:55.029Z,4.67
2019-04-26T16:47:35.397Z,5.67
2019-04-26T16:49:12.406Z,4.45
2019-04-26T16:50:48.326Z,4.67
2019-04-26T16:52:23.979Z,6.45
2019-04-26T16:54:07.038Z,11.65
2019-04-26T16:55:48.881Z,8.88
2019-04-26T16:57:16.286Z,6.58
2019-04-26T16:58:54.950Z,6.97
2019-04-26T17:00:50.202Z,8.40
2019-04-26T17:02:08.686Z,9.85
2019-04-26T17:03:48.041Z,8.63
2019-04-26T17:05:35.619Z,6.30
2019-04-26T17:07:01.982Z,9.10
2019-04-26T17:08:42.884Z,9.23
2019-04-26T17:10:27.513Z,6.80
2019-04-26T17:12:16.094Z,9.16
2019-04-26T17:14:04.122Z,7.57
2019-04-26T17:15:38.736Z,7.37
2019-04-26T17:17:22.303Z,7.37
2019-04-26T17:19:02.640Z,7.50
2019-04-26T17:20:40.566Z,8.73
2019-04-26T17:22:39.964Z,8.03
2019-04-26T17:24:14.478Z,10.13
2019-04-26T17:25:58.999Z,8.20
2019-04-26T17:27:33.066Z,8.78
2019-04-26T17:29:10.861Z,8.53
2019-04-26T17:30:48.272Z,8.33
2019-04-26T17:32:25.726Z,8.55
2019-04-26T17:34:03.547Z,8.35
2019-04-26T17:35:42.870Z,9.00
2019-04-26T17:38:28.750Z,8.43
2019-04-26T17:39:18.387Z,8.98
2019-04-26T17:41:18.071Z,8.55
2019-04-26T17:42:55.245Z,9.00
2019-04-26T17:44:33.934Z,8.95
2019-04-26T17:46:10.656Z,8.97
2019-04-26T17:47:46.453Z,9.50
2019-04-26T17:49:27.270Z,9.03
2019-04-26T17:50:59.495Z,8.30
2019-04-26T17:52:36.361Z,9.37
2019-04-26T17:54:41.029Z,11.35
2019-04-26T17:55:50.945Z,9.78
2019-04-26T17:57:34.752Z,8.47
2019-04-26T17:59:09.348Z,9.33
2019-04-26T18:00:46.102Z,9.63
2019-04-26T18:02:38.700Z,14.25
2019-04-26T18:03:56.131Z,9.50
2019-04-26T18:05:44.975Z,8.70
2019-04-26T18:07:34.623Z,9.20
2019-04-26T18:08:54.626Z,9.65
2019-04-26T18:10:24.054Z,9.78
2019-04-26T18:12:03.264Z,9.43
2019-04-26T18:13:38.007Z,10.43
2019-04-26T18:15:17.266Z,10.90
2019-04-26T18:16:53.222Z,11.00
2019-04-26T18:18:46.247Z,11.63
2019-04-26T18:20:41.410Z,10.40
2019-04-26T18:22:19.726Z,11.78
2019-04-26T18:23:57.307Z,12.23
2019-04-26T18:25:32.609Z,12.67
2019-04-26T18:27:08.240Z,12.30
2019-04-26T18:28:51.520Z,12.50
2019-04-26T18:30:23.615Z,10.53
2019-04-26T18:32:03.393Z,12.33
2019-04-26T18:33:36.388Z,12.80
2019-04-26T18:35:13.529Z,11.77
2019-04-26T18:36:49.648Z,11.57
2019-04-26T18:38:25.431Z,12.90
2019-04-26T18:40:04.538Z,12.33
2019-04-26T18:41:40.844Z,13.70
2019-04-26T18:43:23.632Z,11.70
2019-04-26T18:44:56.037Z,11.93
2019-04-26T18:46:40.532Z,12.60
2019-04-26T18:48:13.824Z,12.95
2019-04-26T18:49:52.105Z,13.48
2019-04-26T18:51:26.911Z,11.30
2019-04-26T18:53:14.007Z,11.03
2019-04-26T18:54:51.639Z,11.30
2019-04-26T18:56:28.159Z,12.03
2019-04-26T18:58:05.481Z,12.10
2019-04-26T18:59:44.834Z,13.10
2019-04-26T19:01:20.040Z,12.40
2019-04-26T19:02:55.548Z,12.40
2019-04-26T19:04:33.492Z,11.57
2019-04-26T19:06:09.164Z,10.87
2019-04-26T19:07:46.199Z,11.38
2019-04-26T19:09:23.989Z,11.10
2019-04-26T19:11:03.080Z,10.03
2019-04-26T19:12:37.806Z,9.70
2019-04-26T19:14:17.931Z,11.95
2019-04-26T19:15:55.095Z,9.85
2019-04-26T19:17:47.957Z,10.10
2019-04-26T19:19:31.426Z,8.93
2019-04-26T19:21:08.646Z,11.27
2019-04-26T19:22:46.536Z,9.35
2019-04-26T19:24:23.348Z,10.13
2019-04-26T19:25:59.137Z,10.30
2019-04-26T19:27:47.144Z,10.50
2019-04-26T19:29:18.224Z,10.07
2019-04-26T19:30:50.942Z,10.00
2019-04-26T19:32:26.628Z,8.88
2019-04-26T19:34:03.218Z,8.90
2019-04-26T19:35:44.114Z,8.97
2019-04-26T19:37:17.821Z,10.55
2019-04-26T19:38:53.399Z,10.87
2019-04-26T19:40:28.636Z,10.40
2019-04-26T19:42:06.143Z,11.33
2019-04-26T19:43:43.563Z,11.50
2019-04-26T19:45:31.319Z,10.78
2019-04-26T19:47:22.530Z,11.13
2019-04-26T19:49:00.051Z,10.93
2019-04-26T19:50:42.045Z,11.20
2019-04-26T19:54:27.732Z,11.30
2019-04-26T19:56:10.031Z,9.43
2019-04-26T19:57:45.312Z,8.95
2019-04-26T19:59:21.920Z,7.87
2019-04-26T20:00:58.542Z,8.30
2019-04-26T20:02:39.287Z,7.73
2019-04-26T20:04:14.245Z,7.28
2019-04-26T20:05:49.771Z,8.13
2019-04-26T20:07:28.253Z,7.10
2019-04-26T20:09:02.591Z,7.10
2019-04-26T20:10:40.625Z,7.27
2019-04-26T20:12:19.077Z,7.15
2019-04-26T20:13:55.340Z,6.87
2019-04-26T20:15:31.821Z,6.60
2019-04-26T20:17:07.428Z,7.00
2019-04-26T20:18:42.947Z,6.37
2019-04-26T20:20:21.472Z,6.47
2019-04-26T20:21:55.973Z,5.40
2019-04-26T20:23:33.823Z,6.40
2019-04-26T20:25:11.906Z,5.60
2019-04-26T20:26:48.720Z,6.33
2019-04-26T20:28:24.373Z,5.50
2019-04-26T20:30:02.358Z,5.70
2019-04-26T20:31:47.505Z,5.60
2019-04-26T20:33:19.595Z,5.80
2019-04-26T20:35:13.092Z,5.62
2019-04-26T20:36:48.448Z,6.17
2019-04-26T20:38:25.589Z,5.58
2019-04-26T20:40:16.159Z,6.40
2019-04-26T20:41:38.318Z,6.10
2019-04-26T20:43:23.749Z,6.25
2019-04-26T20:44:53.703Z,5.37
2019-04-26T20:46:29.673Z,5.50
2019-04-26T20:48:06.116Z,5.57
2019-04-26T20:49:49.351Z,5.40
2019-04-26T20:51:19.097Z,5.50
2019-04-26T20:53:00.551Z,5.50
2019-04-26T20:54:31.853Z,5.43
2019-04-26T20:56:09.801Z,6.07
2019-04-26T20:57:44.972Z,5.90
2019-04-26T20:59:21.981Z,5.17
2019-04-26T21:00:58.065Z,5.80
2019-04-26T21:02:33.664Z,5.40
2019-04-26T21:04:12.178Z,5.03
2019-04-26T21:05:53.096Z,5.30
2019-04-26T21:07:25.359Z,6.10
2019-04-26T21:09:03.361Z,6.00
2019-04-26T21:10:41.784Z,5.60
2019-04-26T21:12:18.507Z,6.05
2019-04-26T21:13:54.239Z,5.90
2019-04-26T21:15:29.783Z,5.53
2019-04-26T21:17:05.467Z,5.40
2019-04-26T21:18:44.218Z,5.33
2019-04-26T21:20:19.061Z,5.12
2019-04-26T21:21:54.672Z,5.30
2019-04-26T21:23:33.837Z,5.67
2019-04-26T21:25:11.682Z,5.90
2019-04-26T21:27:00.484Z,5.45
2019-04-26T21:28:43.929Z,5.10
2019-04-26T21:30:25.109Z,4.85
2019-04-26T21:32:04.962Z,5.30
2019-04-26T21:34:00.315Z,5.40
2019-04-26T21:35:40.451Z,4.80
2019-04-26T21:37:26.491Z,5.10
2019-04-26T21:39:07.493Z,4.93
2019-04-26T21:40:46.964Z,4.63
2019-04-26T21:42:25.633Z,4.45
2019-04-26T21:43:59.976Z,4.47
2019-04-26T21:45:35.872Z,4.50
2019-04-26T21:47:13.439Z,5.10
2019-04-26T21:48:49.043Z,3.98
2019-04-26T21:50:24.673Z,4.00
2019-04-26T21:52:00.432Z,4.23
2019-04-26T21:53:38.246Z,4.50
2019-04-26T21:55:13.248Z,4.33
2019-04-26T21:56:49.889Z,4.08
2019-04-26T21:58:25.474Z,4.00
2019-04-26T22:00:01.011Z,4.20
2019-04-26T22:01:38.166Z,4.50
2019-04-26T22:03:16.174Z,4.37
2019-04-26T22:04:53.220Z,5.20
2019-04-26T22:06:29.113Z,4.77
2019-04-26T22:08:04.688Z,4.57
2019-04-26T22:09:59.771Z,4.53
2019-04-26T22:11:35.594Z,4.60
2019-04-26T22:13:13.837Z,4.93
2019-04-26T22:14:55.145Z,4.60
2019-04-26T22:16:33.994Z,4.55
2019-04-26T22:18:24.778Z,5.30
2019-04-26T22:20:14.468Z,5.90
2019-04-26T22:21:55.533Z,5.60
2019-04-26T22:23:38.891Z,5.50
2019-04-26T22:25:15.622Z,5.47
2019-04-26T22:26:51.146Z,5.73
2019-04-26T22:28:26.933Z,5.08
2019-04-26T22:30:04.560Z,4.97
2019-04-26T22:31:41.352Z,5.20
2019-04-26T22:33:17.963Z,5.40
2019-04-26T22:34:53.922Z,5.43
2019-04-26T22:36:30.812Z,5.60
2019-04-26T22:38:06.649Z,6.00
2019-04-26T22:39:44.226Z,5.50
2019-04-26T22:50:08.527Z,4.33
2019-04-26T22:51:44.117Z,4.00